Time;durP1;ratioP1;P1;durP2;ratioP2;P2;SDS_P1;SDS_P2;PMS_P1;PMS_P2;Temp;Humidity;BMP_temperature;BMP_pressure;BME280_temperature;BME280_humidity;BME280_pressure;Samples;Min_cycle;Max_cycle;Signal;HPM_P1;HPM_P2
2023/03/08 00:00:14;;;;;;;;;;;2.50;88.80;;;;;;5018079;28;20295;-82
2023/03/08 00:02:39;;;;;;;;;;;2.50;88.40;;;;;;5019349;28;20259;-82
2023/03/08 00:05:05;;;;;;;;;;;2.60;88.50;;;;;;5013909;28;19913;-82
2023/03/08 00:07:31;;;;;;;;;;;2.40;88.30;;;;;;5013613;28;19924;-82
2023/03/08 00:09:56;;;;;;;;;;;2.40;88.60;;;;;;5016749;28;20397;-82
2023/03/08 00:12:22;;;;;;;;;;;2.40;88.50;;;;;;5018728;28;19918;-82
2023/03/08 00:14:47;;;;;;;;;;;2.30;88.60;;;;;;5016758;28;19917;-82
2023/03/08 00:17:13;;;;;;;;;;;2.30;88.60;;;;;;5009881;28;19921;-82
2023/03/08 00:19:39;;;;;;;;;;;2.30;88.70;;;;;;5011424;28;20299;-83
2023/03/08 00:22:04;;;;;;;;;;;2.30;88.80;;;;;;5016476;28;19909;-82
2023/03/08 00:24:30;;;;;;;;;;;2.40;89.00;;;;;;5018755;28;19918;-82
2023/03/08 00:26:55;;;;;;;;;;;2.30;88.60;;;;;;5006010;28;19924;-83
2023/03/08 00:29:21;;;;;;;;;;;2.20;88.50;;;;;;5019278;28;19924;-82
2023/03/08 00:31:46;;;;;;;;;;;2.20;88.50;;;;;;5011529;28;19973;-82
2023/03/08 00:34:12;;;;;;;;;;;2.30;88.80;;;;;;5006126;28;20252;-81
2023/03/08 00:36:37;;;;;;;;;;;2.30;88.80;;;;;;5013636;28;19918;-82
2023/03/08 00:39:03;;;;;;;;;;;2.30;88.60;;;;;;5016203;28;19921;-82
2023/03/08 00:41:28;;;;;;;;;;;2.20;88.50;;;;;;5000180;28;19914;-80
2023/03/08 00:43:54;;;;;;;;;;;2.20;88.50;;;;;;5008126;28;19979;-80
2023/03/08 00:46:19;;;;;;;;;;;2.30;88.70;;;;;;4992737;28;20365;-80
2023/03/08 00:48:45;;;;;;;;;;;2.20;88.70;;;;;;5001053;28;20346;-80
2023/03/08 00:51:12;;;;;;;;;;;2.30;89.00;;;;;;5011253;28;20333;-80
2023/03/08 00:53:38;;;;;;;;;;;2.30;88.70;;;;;;5009960;28;19996;-79
2023/03/08 00:56:03;;;;;;;;;;;2.30;88.90;;;;;;5012138;28;20409;-81
2023/03/08 00:58:30;;;;;;;;;;;2.30;88.90;;;;;;5010966;28;19917;-81
2023/03/08 01:00:55;;;;;;;;;;;2.20;89.00;;;;;;5012151;28;20278;-80
2023/03/08 01:03:21;;;;;;;;;;;2.30;89.20;;;;;;5016027;28;20004;-80
2023/03/08 01:05:49;;;;;;;;;;;2.40;88.80;;;;;;5004116;28;19921;-79
2023/03/08 01:08:15;;;;;;;;;;;2.40;88.90;;;;;;5004246;28;19933;-80
2023/03/08 01:10:51;;;;;;;;;;;2.40;88.50;;;;;;5006386;28;19921;-80
2023/03/08 01:13:17;;;;;;;;;;;2.30;88.70;;;;;;5004829;28;19913;-80
2023/03/08 01:15:42;;;;;;;;;;;2.30;88.60;;;;;;5001947;28;19921;-81
2023/03/08 01:18:08;;;;;;;;;;;2.30;88.70;;;;;;5010231;28;19936;-81
2023/03/08 01:20:33;;;;;;;;;;;2.30;88.80;;;;;;5009662;28;19965;-81
2023/03/08 01:22:59;;;;;;;;;;;2.40;89.00;;;;;;5010384;28;19924;-79
2023/03/08 01:25:24;;;;;;;;;;;2.50;88.80;;;;;;5009479;28;19914;-81
2023/03/08 01:27:50;;;;;;;;;;;2.50;88.70;;;;;;5015005;28;19914;-81
2023/03/08 01:30:15;;;;;;;;;;;2.50;88.00;;;;;;5012549;28;19918;-80
2023/03/08 01:32:41;;;;;;;;;;;2.40;88.20;;;;;;5009293;28;19977;-81
2023/03/08 01:35:06;;;;;;;;;;;2.30;87.90;;;;;;5009645;28;19914;-80
2023/03/08 01:37:33;;;;;;;;;;;2.30;88.10;;;;;;5006298;28;19914;-80
2023/03/08 01:39:59;;;;;;;;;;;2.30;88.30;;;;;;5019362;28;19929;-80
2023/03/08 01:42:24;;;;;;;;;;;2.30;88.00;;;;;;5027728;28;21106;-80
2023/03/08 01:44:54;;;;;;;;;;;2.30;88.20;;;;;;5027460;28;20059;-81
2023/03/08 01:47:21;;;;;;;;;;;2.30;88.70;;;;;;5017982;28;19941;-80
2023/03/08 01:49:46;;;;;;;;;;;2.30;88.70;;;;;;5018821;28;19925;-81
2023/03/08 01:52:20;;;;;;;;;;;2.40;88.30;;;;;;5012318;28;19944;-80
2023/03/08 01:54:47;;;;;;;;;;;2.30;88.20;;;;;;5010172;28;20021;-79
2023/03/08 01:57:12;;;;;;;;;;;2.40;88.40;;;;;;5009102;28;20459;-80
2023/03/08 01:59:38;;;;;;;;;;;2.40;88.50;;;;;;5008956;28;19921;-80
2023/03/08 02:02:04;;;;;;;;;;;2.40;88.40;;;;;;5013610;28;19920;-79
2023/03/08 02:04:30;;;;;;;;;;;2.40;88.20;;;;;;5023738;28;19902;-80
2023/03/08 02:06:55;;;;;;;;;;;2.40;88.10;;;;;;5028754;28;20397;-80
2023/03/08 02:09:21;;;;;;;;;;;2.50;88.10;;;;;;5010584;28;20001;-80
2023/03/08 02:11:47;;;;;;;;;;;2.50;87.90;;;;;;5007742;28;19922;-81
2023/03/08 02:14:12;;;;;;;;;;;2.40;87.90;;;;;;5009369;28;19913;-80
2023/03/08 02:16:38;;;;;;;;;;;2.40;88.10;;;;;;5007617;28;19914;-80
2023/03/08 02:19:07;;;;;;;;;;;2.40;88.20;;;;;;5011988;28;19917;-80
2023/03/08 02:21:32;;;;;;;;;;;2.40;88.20;;;;;;5006547;28;20009;-81
2023/03/08 02:24:05;;;;;;;;;;;2.50;88.20;;;;;;5006735;28;19960;-80
2023/03/08 02:26:32;;;;;;;;;;;2.50;88.30;;;;;;5021111;28;19914;-80
2023/03/08 02:28:57;;;;;;;;;;;2.50;88.50;;;;;;5030655;28;19917;-81
2023/03/08 02:31:23;;;;;;;;;;;2.60;88.60;;;;;;5025960;28;19977;-80
2023/03/08 02:33:48;;;;;;;;;;;2.60;88.50;;;;;;5021764;28;20359;-80
2023/03/08 02:36:13;;;;;;;;;;;2.60;88.50;;;;;;5018324;28;19913;-81
2023/03/08 02:38:39;;;;;;;;;;;2.60;88.50;;;;;;5019909;28;20011;-80
2023/03/08 02:41:05;;;;;;;;;;;2.60;88.70;;;;;;5017223;28;19921;-81
2023/03/08 02:43:30;;;;;;;;;;;2.60;88.70;;;;;;5025078;28;19914;-81
2023/03/08 02:45:56;;;;;;;;;;;2.70;88.70;;;;;;5014270;28;20316;-80
2023/03/08 02:48:21;;;;;;;;;;;2.70;88.70;;;;;;5017987;28;19917;-80
2023/03/08 02:50:46;;;;;;;;;;;2.60;88.60;;;;;;5024707;28;19921;-81
2023/03/08 02:53:12;;;;;;;;;;;2.80;88.50;;;;;;5022517;28;20022;-81
2023/03/08 02:55:38;;;;;;;;;;;2.80;88.50;;;;;;5015218;28;19972;-80
2023/03/08 02:58:04;;;;;;;;;;;2.70;88.40;;;;;;5027060;28;20020;-80
2023/03/08 03:00:30;;;;;;;;;;;2.60;88.30;;;;;;5033036;28;19913;-80
2023/03/08 03:02:55;;;;;;;;;;;2.60;88.30;;;;;;5026762;28;19980;-81
2023/03/08 03:05:21;;;;;;;;;;;2.60;88.40;;;;;;5015254;28;19925;-81
2023/03/08 03:07:46;;;;;;;;;;;2.60;88.60;;;;;;5009366;28;19957;-80
2023/03/08 03:10:12;;;;;;;;;;;2.60;88.30;;;;;;5020350;28;19948;-80
2023/03/08 03:12:38;;;;;;;;;;;2.60;88.00;;;;;;5012880;28;19921;-81
2023/03/08 03:15:04;;;;;;;;;;;2.60;88.20;;;;;;5014230;28;19949;-81
2023/03/08 03:17:30;;;;;;;;;;;2.70;88.40;;;;;;5022155;28;20465;-80
2023/03/08 03:19:55;;;;;;;;;;;2.60;88.00;;;;;;5024352;28;19901;-80
2023/03/08 03:22:21;;;;;;;;;;;2.60;88.00;;;;;;5030462;28;19988;-80
2023/03/08 03:24:48;;;;;;;;;;;2.70;88.00;;;;;;5025958;28;19905;-80
2023/03/08 03:27:13;;;;;;;;;;;2.70;88.00;;;;;;5026832;28;20016;-81
2023/03/08 03:29:39;;;;;;;;;;;2.80;87.90;;;;;;5022436;28;19921;-81
2023/03/08 03:32:04;;;;;;;;;;;2.70;87.50;;;;;;5006963;28;19921;-81
2023/03/08 03:34:30;;;;;;;;;;;2.70;87.60;;;;;;5019980;28;19913;-80
2023/03/08 03:36:55;;;;;;;;;;;2.60;87.40;;;;;;5013251;28;19925;-80
2023/03/08 03:39:21;;;;;;;;;;;2.60;87.70;;;;;;5022527;28;19953;-81
2023/03/08 03:41:46;;;;;;;;;;;2.60;87.60;;;;;;5016465;28;19922;-80
2023/03/08 03:44:12;;;;;;;;;;;2.70;88.00;;;;;;5014711;28;19921;-80
2023/03/08 03:46:37;;;;;;;;;;;2.70;87.80;;;;;;5026867;28;20040;-81
2023/03/08 03:49:03;;;;;;;;;;;2.70;88.00;;;;;;5024505;28;19992;-80
2023/03/08 03:51:28;;;;;;;;;;;2.60;87.90;;;;;;5014825;28;19930;-81
2023/03/08 03:53:54;;;;;;;;;;;2.60;87.90;;;;;;5006682;28;20004;-80
2023/03/08 03:56:21;;;;;;;;;;;2.60;87.90;;;;;;5015771;28;19921;-80
2023/03/08 03:58:47;;;;;;;;;;;2.60;88.00;;;;;;5008369;28;19917;-80
2023/03/08 04:01:17;;;;;;;;;;;2.60;88.00;;;;;;5010247;28;20059;-80
2023/03/08 04:03:42;;;;;;;;;;;2.60;88.10;;;;;;5006526;28;19918;-81
2023/03/08 04:06:09;;;;;;;;;;;2.70;88.00;;;;;;5027200;28;19905;-79
2023/03/08 04:08:40;;;;;;;;;;;2.70;88.00;;;;;;5030554;28;19925;-79
2023/03/08 04:11:07;;;;;;;;;;;2.70;88.10;;;;;;5021196;28;19980;-79
2023/03/08 04:13:32;;;;;;;;;;;2.70;88.10;;;;;;5011582;28;19913;-80
2023/03/08 04:15:58;;;;;;;;;;;2.70;87.80;;;;;;5020615;28;19924;-80
2023/03/08 04:18:23;;;;;;;;;;;2.70;87.80;;;;;;5020547;28;19924;-81
2023/03/08 04:20:48;;;;;;;;;;;2.70;87.80;;;;;;5020986;28;19914;-81
2023/03/08 04:23:14;;;;;;;;;;;2.60;87.80;;;;;;5021485;28;19914;-81
2023/03/08 04:25:39;;;;;;;;;;;2.60;88.00;;;;;;5013939;28;19924;-80
2023/03/08 04:28:05;;;;;;;;;;;2.60;88.20;;;;;;5008936;28;19972;-79
2023/03/08 04:30:30;;;;;;;;;;;2.60;88.10;;;;;;5012356;28;19914;-80
2023/03/08 04:32:56;;;;;;;;;;;2.60;88.10;;;;;;5018672;28;19948;-80
2023/03/08 04:35:21;;;;;;;;;;;2.50;88.30;;;;;;5016834;28;19964;-80
2023/03/08 04:37:47;;;;;;;;;;;2.50;88.60;;;;;;5020131;28;19922;-81
2023/03/08 04:40:12;;;;;;;;;;;2.50;88.60;;;;;;5013045;28;20330;-81
2023/03/08 04:42:39;;;;;;;;;;;2.60;88.50;;;;;;5017992;28;19936;-80
2023/03/08 04:45:05;;;;;;;;;;;2.60;88.50;;;;;;5015392;28;20201;-80
2023/03/08 04:47:31;;;;;;;;;;;2.50;88.40;;;;;;5013883;28;19979;-79
2023/03/08 04:49:56;;;;;;;;;;;2.40;88.40;;;;;;5007457;28;19917;-80
2023/03/08 04:52:22;;;;;;;;;;;2.40;88.60;;;;;;5003834;28;19917;-80
2023/03/08 04:54:48;;;;;;;;;;;2.50;88.60;;;;;;4996949;28;19945;-80
2023/03/08 04:57:13;;;;;;;;;;;2.40;88.70;;;;;;5009931;28;19920;-80
2023/03/08 04:59:38;;;;;;;;;;;2.40;88.50;;;;;;5006897;28;19924;-80
2023/03/08 05:02:04;;;;;;;;;;;2.40;88.70;;;;;;5007802;28;19933;-80
2023/03/08 05:04:29;;;;;;;;;;;2.40;88.60;;;;;;5005473;28;19921;-80
2023/03/08 05:06:55;;;;;;;;;;;2.50;88.30;;;;;;5002213;28;19914;-80
2023/03/08 05:09:20;;;;;;;;;;;2.40;88.30;;;;;;5009279;28;20329;-79
2023/03/08 05:11:46;;;;;;;;;;;2.40;88.40;;;;;;5011740;28;20008;-80
2023/03/08 05:14:11;;;;;;;;;;;2.40;88.30;;;;;;5007885;28;20381;-80
2023/03/08 05:16:37;;;;;;;;;;;2.50;88.50;;;;;;5005529;28;20350;-79
2023/03/08 05:19:02;;;;;;;;;;;2.50;88.30;;;;;;5001883;28;19918;-80
2023/03/08 05:21:27;;;;;;;;;;;2.50;88.40;;;;;;5007288;28;19992;-80
2023/03/08 05:23:53;;;;;;;;;;;2.50;88.30;;;;;;5008742;28;19921;-80
2023/03/08 05:26:19;;;;;;;;;;;2.40;88.10;;;;;;5006741;28;19914;-80
2023/03/08 05:28:44;;;;;;;;;;;2.30;88.40;;;;;;5028438;28;20016;-80
2023/03/08 05:31:14;;;;;;;;;;;2.50;88.40;;;;;;5017436;28;19921;-80
2023/03/08 05:33:39;;;;;;;;;;;2.30;88.50;;;;;;5022396;28;19921;-80
2023/03/08 05:36:06;;;;;;;;;;;2.40;88.40;;;;;;5024409;28;19914;-80
2023/03/08 05:38:31;;;;;;;;;;;2.30;88.50;;;;;;5019960;28;19910;-81
2023/03/08 05:41:01;;;;;;;;;;;2.40;88.80;;;;;;5020518;28;20114;-80
2023/03/08 05:43:26;;;;;;;;;;;2.20;88.60;;;;;;5015500;28;19914;-81
2023/03/08 05:45:56;;;;;;;;;;;2.30;88.80;;;;;;5017868;28;19920;-80
2023/03/08 05:48:22;;;;;;;;;;;2.20;89.00;;;;;;5027821;22;20035;-81
2023/03/08 05:50:47;;;;;;;;;;;2.20;88.90;;;;;;4990835;28;19957;-79
2023/03/08 05:53:13;;;;;;;;;;;2.10;89.20;;;;;;4994293;28;19929;-80
2023/03/08 05:55:38;;;;;;;;;;;2.20;89.20;;;;;;5002296;28;19961;-79
2023/03/08 05:58:04;;;;;;;;;;;2.20;89.20;;;;;;4994617;28;19929;-79
2023/03/08 06:00:29;;;;;;;;;;;2.20;89.50;;;;;;4991263;28;19920;-80
2023/03/08 06:02:57;;;;;;;;;;;2.10;89.30;;;;;;4994413;28;19910;-80
2023/03/08 06:05:22;;;;;;;;;;;2.20;89.20;;;;;;4989659;28;19953;-79
2023/03/08 06:07:47;;;;;;;;;;;2.10;89.20;;;;;;4982078;28;19972;-80
2023/03/08 06:10:14;;;;;;;;;;;2.10;89.60;;;;;;4972580;28;19970;-80
2023/03/08 06:12:39;;;;;;;;;;;2.10;89.50;;;;;;4993711;28;19932;-79
2023/03/08 06:15:05;;;;;;;;;;;2.10;88.80;;;;;;4993592;28;20289;-80
2023/03/08 06:17:30;;;;;;;;;;;2.00;88.80;;;;;;4987608;28;19914;-79
2023/03/08 06:19:56;;;;;;;;;;;2.10;89.10;;;;;;4989208;28;20599;-79
2023/03/08 06:22:21;;;;;;;;;;;2.00;88.80;;;;;;4997044;28;19909;-79
2023/03/08 06:24:48;;;;;;;;;;;2.00;89.00;;;;;;5000452;28;19925;-80
2023/03/08 06:27:15;;;;;;;;;;;2.00;88.70;;;;;;4992315;28;19914;-79
2023/03/08 06:29:40;;;;;;;;;;;1.90;88.70;;;;;;4970205;28;19920;-80
2023/03/08 06:32:06;;;;;;;;;;;1.90;88.50;;;;;;4993064;28;19988;-80
2023/03/08 06:34:31;;;;;;;;;;;1.80;88.20;;;;;;4993229;28;19914;-79
2023/03/08 06:36:58;;;;;;;;;;;1.60;88.20;;;;;;4988046;28;19914;-78
2023/03/08 06:39:24;;;;;;;;;;;1.50;89.10;;;;;;4972715;28;19913;-78
2023/03/08 06:41:49;;;;;;;;;;;1.60;89.20;;;;;;4979160;28;19921;-80
2023/03/08 06:44:15;;;;;;;;;;;1.60;89.60;;;;;;4968420;28;20147;-78
2023/03/08 06:46:40;;;;;;;;;;;1.60;89.30;;;;;;4999620;28;19967;-79
2023/03/08 06:49:06;;;;;;;;;;;1.60;89.20;;;;;;4992952;28;19917;-79
2023/03/08 06:51:32;;;;;;;;;;;1.60;89.00;;;;;;4979875;28;20015;-79
2023/03/08 06:53:57;;;;;;;;;;;1.60;89.10;;;;;;4994986;28;20250;-81
2023/03/08 06:56:23;;;;;;;;;;;1.50;89.10;;;;;;4997726;28;19942;-80
2023/03/08 06:58:48;;;;;;;;;;;1.50;89.50;;;;;;5004961;28;20497;-81
2023/03/08 07:01:14;;;;;;;;;;;1.50;89.60;;;;;;5007187;28;19961;-80
2023/03/08 07:03:40;;;;;;;;;;;1.60;89.60;;;;;;4998967;28;20352;-80
2023/03/08 07:06:06;;;;;;;;;;;1.60;89.60;;;;;;4999947;28;20000;-81
2023/03/08 07:08:32;;;;;;;;;;;1.70;89.60;;;;;;4996964;28;19944;-80
2023/03/08 07:10:58;;;;;;;;;;;1.60;89.50;;;;;;5001888;28;19917;-79
2023/03/08 07:13:24;;;;;;;;;;;1.70;89.50;;;;;;5006223;28;19917;-80
2023/03/08 07:15:50;;;;;;;;;;;1.80;89.50;;;;;;5004908;28;20275;-80
2023/03/08 07:18:15;;;;;;;;;;;1.80;89.60;;;;;;4980426;28;19918;-81
2023/03/08 07:20:41;;;;;;;;;;;1.80;89.40;;;;;;4976247;28;20008;-81
2023/03/08 07:23:06;;;;;;;;;;;1.90;89.50;;;;;;4994402;28;19914;-79
2023/03/08 07:25:32;;;;;;;;;;;1.90;89.30;;;;;;4993863;28;19917;-80
2023/03/08 07:27:58;;;;;;;;;;;1.70;88.80;;;;;;4976232;28;19910;-80
2023/03/08 07:30:24;;;;;;;;;;;1.70;89.20;;;;;;4980796;28;19956;-81
2023/03/08 07:32:51;;;;;;;;;;;1.80;89.30;;;;;;4987676;28;20110;-81
2023/03/08 07:35:17;;;;;;;;;;;1.70;89.00;;;;;;4980679;28;20007;-81
2023/03/08 07:37:43;;;;;;;;;;;1.60;89.10;;;;;;5000195;28;19926;-82
2023/03/08 07:40:10;;;;;;;;;;;1.50;88.70;;;;;;4997243;28;19906;-82
2023/03/08 07:42:35;;;;;;;;;;;1.50;88.60;;;;;;4998188;28;20008;-81
2023/03/08 07:45:01;;;;;;;;;;;1.40;88.90;;;;;;4995173;28;19957;-81
2023/03/08 07:47:26;;;;;;;;;;;1.30;88.90;;;;;;4996730;28;19917;-81
2023/03/08 07:49:52;;;;;;;;;;;1.40;89.20;;;;;;4995393;28;20001;-81
2023/03/08 07:52:17;;;;;;;;;;;1.30;89.20;;;;;;4974686;28;19936;-80
2023/03/08 07:54:43;;;;;;;;;;;1.30;89.20;;;;;;4995897;28;19918;-81
2023/03/08 07:57:11;;;;;;;;;;;1.30;89.20;;;;;;4992848;28;19914;-81
2023/03/08 07:59:37;;;;;;;;;;;1.20;89.10;;;;;;4992192;28;19913;-81
2023/03/08 08:02:02;;;;;;;;;;;1.30;89.50;;;;;;5018080;28;20409;-81
2023/03/08 08:04:28;;;;;;;;;;;1.20;89.10;;;;;;5015212;28;19936;-79
2023/03/08 08:06:53;;;;;;;;;;;1.10;89.10;;;;;;5005957;28;19922;-82
2023/03/08 08:09:19;;;;;;;;;;;1.20;89.30;;;;;;5002311;28;19929;-83
2023/03/08 08:11:44;;;;;;;;;;;1.20;89.30;;;;;;5000996;28;20413;-85
2023/03/08 08:14:10;;;;;;;;;;;1.10;89.10;;;;;;4977586;28;20300;-84
2023/03/08 08:16:35;;;;;;;;;;;1.00;89.30;;;;;;4994094;28;19910;-84
2023/03/08 08:19:01;;;;;;;;;;;1.20;89.80;;;;;;4977785;28;20365;-87
2023/03/08 08:21:26;;;;;;;;;;;1.10;89.10;;;;;;4994255;28;20417;-86
2023/03/08 08:23:56;;;;;;;;;;;1.00;89.30;;;;;;4978846;28;19914;-86
2023/03/08 08:26:22;;;;;;;;;;;0.90;89.50;;;;;;4976765;28;20344;-87
2023/03/08 08:28:49;;;;;;;;;;;0.90;89.90;;;;;;4986130;28;19941;-86
2023/03/08 08:31:16;;;;;;;;;;;0.80;89.90;;;;;;4976698;28;20332;-87
2023/03/08 08:33:42;;;;;;;;;;;0.80;90.10;;;;;;4992940;28;19914;-87
2023/03/08 08:36:10;;;;;;;;;;;0.80;90.10;;;;;;4992687;28;19917;-87
2023/03/08 08:38:36;;;;;;;;;;;0.80;90.30;;;;;;4978860;28;20376;-88
2023/03/08 08:41:02;;;;;;;;;;;0.90;90.40;;;;;;4989493;28;20039;-85
2023/03/08 08:43:28;;;;;;;;;;;0.90;90.40;;;;;;4977438;28;20044;-85
2023/03/08 08:45:55;;;;;;;;;;;0.90;90.40;;;;;;4979491;28;19910;-85
2023/03/08 08:48:20;;;;;;;;;;;0.90;90.40;;;;;;4981104;28;19952;-86
2023/03/08 08:50:46;;;;;;;;;;;0.90;90.20;;;;;;4981505;28;19914;-85
2023/03/08 08:53:11;;;;;;;;;;;0.80;90.40;;;;;;4977774;28;20436;-84
2023/03/08 08:55:37;;;;;;;;;;;0.80;90.40;;;;;;4979341;28;19909;-84
2023/03/08 08:58:03;;;;;;;;;;;0.80;90.50;;;;;;4994773;28;20315;-85
2023/03/08 09:00:30;;;;;;;;;;;0.70;90.50;;;;;;4997598;28;19910;-84
2023/03/08 09:02:55;;;;;;;;;;;0.70;90.80;;;;;;4982328;28;19910;-85
2023/03/08 09:05:21;;;;;;;;;;;0.60;90.90;;;;;;4999410;28;19916;-84
2023/03/08 09:07:46;;;;;;;;;;;0.70;91.00;;;;;;4999868;28;19910;-84
2023/03/08 09:10:12;;;;;;;;;;;0.70;91.00;;;;;;5001904;28;20001;-84
2023/03/08 09:12:37;;;;;;;;;;;0.60;91.00;;;;;;4996839;28;19932;-84
2023/03/08 09:15:04;;;;;;;;;;;0.70;91.20;;;;;;4980475;28;19913;-84
2023/03/08 09:17:32;;;;;;;;;;;0.70;91.10;;;;;;4979476;28;19910;-84
2023/03/08 09:19:58;;;;;;;;;;;0.60;91.00;;;;;;4979834;28;19981;-83
2023/03/08 09:22:23;;;;;;;;;;;0.60;91.20;;;;;;4997024;28;19918;-83
2023/03/08 09:24:49;;;;;;;;;;;0.60;91.30;;;;;;4993398;28;19922;-83
2023/03/08 09:27:15;;;;;;;;;;;0.60;91.30;;;;;;4995557;28;19941;-83
2023/03/08 09:29:40;;;;;;;;;;;0.60;91.40;;;;;;4996670;28;20385;-83
2023/03/08 09:32:06;;;;;;;;;;;0.60;91.50;;;;;;4978337;28;19981;-84
2023/03/08 09:34:31;;;;;;;;;;;0.60;91.40;;;;;;4993848;28;20392;-83
2023/03/08 09:36:57;;;;;;;;;;;0.60;91.50;;;;;;4992630;28;19914;-81
2023/03/08 09:39:22;;;;;;;;;;;0.60;91.50;;;;;;4990995;28;20612;-85
2023/03/08 09:41:58;;;;;;;;;;;0.60;91.70;;;;;;4994533;28;19926;-84
2023/03/08 09:44:24;;;;;;;;;;;0.60;91.40;;;;;;4974863;28;19929;-84
2023/03/08 09:46:57;;;;;;;;;;;0.60;91.40;;;;;;4981151;28;19925;-85
2023/03/08 09:49:30;;;;;;;;;;;0.60;91.50;;;;;;4981456;28;20322;-86
2023/03/08 09:52:03;;;;;;;;;;;0.60;91.20;;;;;;4991727;28;19969;-89
2023/03/08 09:54:30;;;;;;;;;;;0.60;91.30;;;;;;4973443;28;20284;-87
2023/03/08 09:56:56;;;;;;;;;;;0.60;91.20;;;;;;4979523;28;20380;-84
2023/03/08 09:59:24;;;;;;;;;;;0.60;91.20;;;;;;4992269;28;19976;-84
2023/03/08 10:01:55;;;;;;;;;;;0.60;91.20;;;;;;4993759;28;19921;-85
2023/03/08 10:04:29;;;;;;;;;;;0.60;91.10;;;;;;4995201;28;19910;-86
2023/03/08 10:07:10;;;;;;;;;;;0.60;91.00;;;;;;4982522;28;19936;-90
2023/03/08 10:09:39;;;;;;;;;;;0.70;91.10;;;;;;4993743;28;19916;-87
2023/03/08 10:12:26;;;;;;;;;;;0.80;91.30;;;;;;5011506;28;19941;-87
2023/03/08 10:14:55;;;;;;;;;;;0.80;91.00;;;;;;5001880;28;20273;-86
2023/03/08 10:17:23;;;;;;;;;;;0.70;90.80;;;;;;5003650;28;19910;-84
2023/03/08 10:19:54;;;;;;;;;;;0.80;90.80;;;;;;4982437;28;19921;-85
2023/03/08 10:22:30;;;;;;;;;;;0.80;90.80;;;;;;4975869;28;20037;-85
2023/03/08 10:25:14;;;;;;;;;;;0.80;90.80;;;;;;4992157;28;19913;-85
2023/03/08 10:27:40;;;;;;;;;;;0.70;90.80;;;;;;4979041;28;20305;-84
2023/03/08 10:30:13;;;;;;;;;;;0.80;91.00;;;;;;4970588;28;19914;-81
2023/03/08 10:32:43;;;;;;;;;;;0.90;91.00;;;;;;4972834;28;20361;-82
2023/03/08 10:35:08;;;;;;;;;;;0.90;90.90;;;;;;4974557;28;19913;-81
2023/03/08 10:37:34;;;;;;;;;;;0.90;91.00;;;;;;4995308;28;20468;-82
2023/03/08 10:40:04;;;;;;;;;;;0.90;90.70;;;;;;4994773;28;19924;-84
2023/03/08 10:42:30;;;;;;;;;;;0.90;91.20;;;;;;4975869;28;19924;-81
2023/03/08 10:44:58;;;;;;;;;;;0.90;91.10;;;;;;4996965;28;19914;-83
2023/03/08 10:47:31;;;;;;;;;;;0.90;91.40;;;;;;4997432;28;19917;-81
2023/03/08 10:50:12;;;;;;;;;;;1.00;91.20;;;;;;4996296;28;19921;-84
2023/03/08 10:52:38;;;;;;;;;;;0.90;91.00;;;;;;4992484;28;19917;-82
2023/03/08 10:55:11;;;;;;;;;;;0.90;90.90;;;;;;4974850;28;20443;-83
2023/03/08 10:57:38;;;;;;;;;;;0.90;91.10;;;;;;4983745;28;19963;-80
2023/03/08 11:00:11;;;;;;;;;;;1.10;91.20;;;;;;4999594;28;19928;-84
2023/03/08 11:02:37;;;;;;;;;;;1.10;91.00;;;;;;4986246;28;19910;-84
2023/03/08 11:05:15;;;;;;;;;;;1.00;90.60;;;;;;4978985;28;19940;-84
2023/03/08 11:07:48;;;;;;;;;;;0.90;90.50;;;;;;4974910;28;19930;-82
2023/03/08 11:10:15;;;;;;;;;;;1.00;90.60;;;;;;4998164;28;19941;-83
2023/03/08 11:12:41;;;;;;;;;;;1.00;90.70;;;;;;4992409;28;19977;-83
2023/03/08 11:15:16;;;;;;;;;;;1.10;90.50;;;;;;4975247;28;19945;-83
2023/03/08 11:17:48;;;;;;;;;;;1.00;90.60;;;;;;4992847;28;20326;-81
2023/03/08 11:20:19;;;;;;;;;;;1.10;90.70;;;;;;4994853;28;20467;-83
2023/03/08 11:23:01;;;;;;;;;;;1.00;90.30;;;;;;4992600;28;19981;-82
2023/03/08 11:25:26;;;;;;;;;;;1.00;90.20;;;;;;4975698;28;19909;-81
2023/03/08 11:27:52;;;;;;;;;;;1.00;90.40;;;;;;4976713;28;19910;-82
2023/03/08 11:30:30;;;;;;;;;;;1.00;90.70;;;;;;4973792;28;19921;-81
2023/03/08 11:33:01;;;;;;;;;;;1.20;90.70;;;;;;4988209;28;20381;-84
2023/03/08 11:35:47;;;;;;;;;;;1.10;90.50;;;;;;4974590;28;20381;-82
2023/03/08 11:38:23;;;;;;;;;;;1.20;90.50;;;;;;4960073;28;19914;-82
2023/03/08 11:41:13;;;;;;;;;;;1.20;90.50;;;;;;4981682;28;20544;-83
2023/03/08 11:43:42;;;;;;;;;;;1.20;90.20;;;;;;4977872;28;19914;-82
2023/03/08 11:46:20;;;;;;;;;;;1.10;90.20;;;;;;4982813;28;19996;-82
2023/03/08 11:49:05;;;;;;;;;;;1.10;90.40;;;;;;4994768;28;20356;-81
2023/03/08 11:51:56;;;;;;;;;;;1.20;90.20;;;;;;4989118;28;19918;-81
2023/03/08 11:54:34;;;;;;;;;;;1.10;90.10;;;;;;4971279;28;19917;-82
2023/03/08 11:57:01;;;;;;;;;;;1.20;90.10;;;;;;4969545;28;20447;-81
2023/03/08 11:59:32;;;;;;;;;;;1.10;90.10;;;;;;4992129;28;19976;-81
2023/03/08 12:02:02;;;;;;;;;;;1.20;90.40;;;;;;4970093;28;19968;-81
2023/03/08 12:04:56;;;;;;;;;;;1.20;90.20;;;;;;4994532;28;19913;-79
2023/03/08 12:07:34;;;;;;;;;;;1.30;90.00;;;;;;4969029;28;19929;-81
2023/03/08 12:10:02;;;;;;;;;;;1.30;90.00;;;;;;4971523;28;19936;-84
2023/03/08 12:12:35;;;;;;;;;;;1.30;90.10;;;;;;4989471;28;19949;-83
2023/03/08 12:15:11;;;;;;;;;;;1.30;90.00;;;;;;4989502;28;20031;-82
2023/03/08 12:17:43;;;;;;;;;;;1.30;90.20;;;;;;4975050;28;19918;-80
2023/03/08 12:20:12;;;;;;;;;;;1.50;90.30;;;;;;4974165;28;20004;-81
2023/03/08 12:22:45;;;;;;;;;;;1.40;90.00;;;;;;4982986;28;20355;-82
2023/03/08 12:25:26;;;;;;;;;;;1.40;90.10;;;;;;4989789;28;19913;-80
2023/03/08 12:27:59;;;;;;;;;;;1.30;90.00;;;;;;4988094;28;19922;-81
2023/03/08 12:30:43;;;;;;;;;;;1.30;89.90;;;;;;4984623;28;19910;-81
2023/03/08 12:33:10;;;;;;;;;;;1.20;89.90;;;;;;4992300;28;19932;-81
2023/03/08 12:35:37;;;;;;;;;;;1.30;90.20;;;;;;4980941;28;19905;-81
2023/03/08 12:38:04;;;;;;;;;;;1.30;90.10;;;;;;4984787;28;19914;-82
2023/03/08 12:40:30;;;;;;;;;;;1.40;90.00;;;;;;4996481;28;20292;-82
2023/03/08 12:43:12;;;;;;;;;;;1.40;90.10;;;;;;4992318;28;19901;-80
2023/03/08 12:45:38;;;;;;;;;;;1.40;90.10;;;;;;4989601;28;19914;-81
2023/03/08 12:48:04;;;;;;;;;;;1.40;90.20;;;;;;4981386;28;19924;-81
2023/03/08 12:50:39;;;;;;;;;;;1.50;89.80;;;;;;4993098;28;19917;-80
2023/03/08 12:53:25;;;;;;;;;;;1.40;89.80;;;;;;4976308;28;20416;-81
2023/03/08 12:55:59;;;;;;;;;;;1.40;90.00;;;;;;4973390;28;20340;-81
2023/03/08 12:58:25;;;;;;;;;;;1.40;90.20;;;;;;4974968;28;19921;-81
2023/03/08 13:00:57;;;;;;;;;;;1.30;90.30;;;;;;4991357;28;19914;-82
2023/03/08 13:03:22;;;;;;;;;;;1.40;90.30;;;;;;4989705;28;19925;-82
2023/03/08 13:05:49;;;;;;;;;;;1.40;90.20;;;;;;4990543;28;19963;-81
2023/03/08 13:08:17;;;;;;;;;;;1.40;90.20;;;;;;4993938;28;19910;-81
2023/03/08 13:10:49;;;;;;;;;;;1.40;90.30;;;;;;5007463;28;19914;-86
2023/03/08 13:13:17;;;;;;;;;;;1.40;90.00;;;;;;4970866;28;20147;-85
2023/03/08 13:15:43;;;;;;;;;;;1.40;90.20;;;;;;4967337;28;19980;-85
2023/03/08 13:18:08;;;;;;;;;;;1.40;90.10;;;;;;4992593;28;19922;-85
2023/03/08 13:20:43;;;;;;;;;;;1.50;90.30;;;;;;4995622;28;19914;-85
2023/03/08 13:23:11;;;;;;;;;;;1.60;90.10;;;;;;4969382;28;19920;-87
2023/03/08 13:25:41;;;;;;;;;;;1.40;90.10;;;;;;4980607;28;19928;-85
2023/03/08 13:28:15;;;;;;;;;;;1.50;90.30;;;;;;4964761;28;19918;-89
2023/03/08 13:30:45;;;;;;;;;;;1.60;90.20;;;;;;4988652;28;19948;-84
2023/03/08 13:33:13;;;;;;;;;;;1.50;90.30;;;;;;4970649;28;20401;-85
2023/03/08 13:35:39;;;;;;;;;;;1.60;90.60;;;;;;4983977;28;19922;-85
2023/03/08 13:38:05;;;;;;;;;;;1.80;90.60;;;;;;4968945;28;19922;-86
2023/03/08 13:40:30;;;;;;;;;;;1.80;90.20;;;;;;4980331;28;19921;-84
2023/03/08 13:42:57;;;;;;;;;;;1.80;89.70;;;;;;4965765;28;19922;-85
2023/03/08 13:45:23;;;;;;;;;;;1.60;89.80;;;;;;4988673;28;19938;-85
2023/03/08 13:47:49;;;;;;;;;;;1.60;89.80;;;;;;4987963;28;19914;-85
2023/03/08 13:50:20;;;;;;;;;;;1.60;89.70;;;;;;4972212;28;19945;-86
2023/03/08 13:52:46;;;;;;;;;;;1.60;89.90;;;;;;4975486;28;19926;-86
2023/03/08 13:55:18;;;;;;;;;;;1.50;90.10;;;;;;5002918;28;19940;-85
2023/03/08 13:57:46;;;;;;;;;;;1.50;90.50;;;;;;4997813;28;19914;-84
2023/03/08 14:00:26;;;;;;;;;;;1.50;90.10;;;;;;4984677;28;20017;-82
2023/03/08 14:02:51;;;;;;;;;;;1.50;90.10;;;;;;5015059;28;19937;-85
2023/03/08 14:05:22;;;;;;;;;;;1.50;90.30;;;;;;4985644;28;20428;-87
2023/03/08 14:08:02;;;;;;;;;;;1.60;90.40;;;;;;4986800;28;19920;-85
2023/03/08 14:10:30;;;;;;;;;;;1.60;90.40;;;;;;4972465;28;19929;-85
2023/03/08 14:12:56;;;;;;;;;;;1.60;90.40;;;;;;4993950;28;19928;-85
2023/03/08 14:15:25;;;;;;;;;;;1.60;90.20;;;;;;4967845;28;19910;-90
2023/03/08 14:17:56;;;;;;;;;;;1.60;90.00;;;;;;4974856;28;19914;-89
2023/03/08 14:20:25;;;;;;;;;;;1.60;90.20;;;;;;4977636;28;20021;-89
2023/03/08 14:22:56;;;;;;;;;;;1.70;90.30;;;;;;4990078;28;19925;-89
2023/03/08 14:25:29;;;;;;;;;;;1.70;90.00;;;;;;4992333;28;19914;-89
2023/03/08 14:27:55;;;;;;;;;;;1.60;90.00;;;;;;4999179;28;19913;-89
2023/03/08 14:30:23;;;;;;;;;;;1.70;90.30;;;;;;4994609;28;19964;-87
2023/03/08 14:32:59;;;;;;;;;;;1.80;90.20;;;;;;4989405;28;19917;-84